Time;durP1;ratioP1;P1;durP2;ratioP2;P2;SDS_P1;SDS_P2;PMS_P1;PMS_P2;Temp;Humidity;BMP_temperature;BMP_pressure;BME280_temperature;BME280_humidity;BME280_pressure;Samples;Min_cycle;Max_cycle;Signal;HPM_P1;HPM_P2
2021/09/13 04:02:21;;;;;;;8.50;7.90;;;16.10;99.90;;;;;;5091863;23;20482;-66
2021/09/13 04:04:50;;;;;;;9.27;8.47;;;16.10;99.90;;;;;;4985046;28;20447;-67
2021/09/13 04:07:20;;;;;;;8.63;7.83;;;16.10;99.90;;;;;;4983995;28;20450;-67
2021/09/13 04:09:53;;;;;;;7.70;7.10;;;16.10;99.90;;;;;;4983267;28;20549;-67
2021/09/13 04:12:20;;;;;;;7.63;7.13;;;16.20;99.90;;;;;;4983331;28;20481;-68
2021/09/13 04:14:46;;;;;;;8.00;7.30;;;16.20;99.90;;;;;;4982343;28;20494;-68
2021/09/13 04:17:13;;;;;;;9.80;7.50;;;16.30;99.90;;;;;;4988524;28;20475;-67
2021/09/13 04:19:42;;;;;;;8.50;7.70;;;16.40;99.90;;;;;;4989459;28;20462;-67
2021/09/13 04:22:09;;;;;;;8.93;8.17;;;16.40;99.90;;;;;;4982689;28;20509;-67
2021/09/13 04:24:36;;;;;;;7.53;6.83;;;16.40;99.90;;;;;;4980117;28;20477;-67
2021/09/13 04:27:03;;;;;;;7.20;6.63;;;16.40;99.90;;;;;;4978455;28;20819;-67
2021/09/13 04:29:30;;;;;;;7.93;7.43;;;16.40;99.90;;;;;;4977872;28;20463;-67
2021/09/13 04:31:56;;;;;;;7.53;6.93;;;16.40;99.90;;;;;;4977608;28;20479;-67
2021/09/13 04:34:23;;;;;;;6.83;6.27;;;16.30;99.90;;;;;;4977841;28;20458;-67
2021/09/13 04:36:51;;;;;;;7.13;6.60;;;16.40;99.90;;;;;;4977755;28;20465;-67
2021/09/13 04:39:18;;;;;;;7.70;7.00;;;16.40;99.90;;;;;;4977709;28;20454;-67
2021/09/13 04:41:45;;;;;;;7.33;6.73;;;16.30;99.90;;;;;;4978105;28;20813;-67
2021/09/13 04:44:11;;;;;;;7.93;7.30;;;16.30;99.90;;;;;;4977625;28;20465;-67
2021/09/13 04:46:38;;;;;;;7.13;6.53;;;16.20;99.90;;;;;;4977858;28;20796;-67
2021/09/13 04:49:05;;;;;;;7.17;6.67;;;16.20;99.90;;;;;;4977396;28;20459;-67
2021/09/13 04:51:32;;;;;;;7.70;7.00;;;16.10;99.90;;;;;;4977091;28;20990;-67
2021/09/13 04:54:01;;;;;;;7.67;7.07;;;16.10;99.90;;;;;;4977129;28;20494;-67
2021/09/13 04:56:28;;;;;;;6.80;6.40;;;16.00;99.90;;;;;;4977867;28;20518;-67
2021/09/13 04:58:54;;;;;;;7.10;6.50;;;16.00;99.90;;;;;;4981660;28;20483;-66
2021/09/13 05:01:21;;;;;;;6.77;6.27;;;16.00;99.90;;;;;;4983764;28;20486;-67
2021/09/13 05:03:49;;;;;;;7.03;6.17;;;16.00;99.90;;;;;;4979524;28;20458;-66
2021/09/13 05:06:16;;;;;;;7.37;6.77;;;16.00;99.90;;;;;;4977266;28;20454;-65
2021/09/13 05:08:43;;;;;;;6.73;6.27;;;16.00;99.90;;;;;;4977372;28;20803;-66
2021/09/13 05:11:11;;;;;;;6.30;5.90;;;16.10;99.90;;;;;;4977101;28;20486;-66
2021/09/13 05:13:37;;;;;;;6.63;6.13;;;16.20;99.90;;;;;;4977141;28;20466;-66
2021/09/13 05:16:04;;;;;;;12.47;6.33;;;16.30;99.90;;;;;;4976928;28;20454;-65
2021/09/13 05:18:31;;;;;;;7.70;6.67;;;16.30;99.90;;;;;;4976838;28;20482;-66
2021/09/13 05:20:58;;;;;;;6.37;5.87;;;16.40;99.90;;;;;;4977203;28;20501;-65
2021/09/13 05:23:24;;;;;;;5.97;5.60;;;16.50;99.90;;;;;;4989426;28;20454;-66
2021/09/13 05:25:52;;;;;;;6.50;6.10;;;16.50;99.90;;;;;;4981813;28;20458;-66
2021/09/13 05:28:20;;;;;;;6.73;6.17;;;16.60;99.90;;;;;;4977146;28;20925;-66
2021/09/13 05:30:48;;;;;;;8.13;5.57;;;16.60;99.90;;;;;;4976677;28;20479;-67
2021/09/13 05:33:15;;;;;;;6.20;5.80;;;16.60;99.90;;;;;;4976804;28;20549;-66
2021/09/13 05:35:42;;;;;;;6.60;5.93;;;16.60;99.90;;;;;;4976809;28;20535;-67
2021/09/13 05:38:09;;;;;;;5.80;5.33;;;16.70;99.90;;;;;;4976385;28;20482;-67
2021/09/13 05:40:36;;;;;;;8.77;5.70;;;16.80;99.90;;;;;;4985760;28;21000;-66
2021/09/13 05:43:05;;;;;;;6.50;5.97;;;16.90;99.90;;;;;;4986437;28;20482;-66
2021/09/13 05:45:33;;;;;;;6.73;6.17;;;17.00;99.90;;;;;;4977902;28;20462;-67
2021/09/13 05:47:59;;;;;;;14.43;6.13;;;17.00;99.90;;;;;;4976673;28;20498;-67
2021/09/13 05:50:26;;;;;;;6.23;5.80;;;17.10;99.90;;;;;;4976444;28;20458;-68
2021/09/13 05:52:53;;;;;;;6.23;5.67;;;17.20;99.90;;;;;;4975954;28;20454;-66
2021/09/13 05:55:21;;;;;;;6.13;5.53;;;17.20;99.90;;;;;;4975669;28;20459;-67
2021/09/13 05:57:48;;;;;;;5.37;5.00;;;17.30;99.90;;;;;;4975571;28;20478;-67
2021/09/13 06:00:15;;;;;;;6.00;5.40;;;17.40;99.90;;;;;;4975947;28;20443;-67
2021/09/13 06:02:43;;;;;;;6.13;5.57;;;17.40;99.90;;;;;;4976029;28;20454;-66
2021/09/13 06:05:11;;;;;;;6.63;5.57;;;17.50;99.90;;;;;;4976717;28;20481;-67
2021/09/13 06:07:38;;;;;;;6.10;5.60;;;17.50;99.90;;;;;;4975790;28;20459;-67
2021/09/13 06:10:05;;;;;;;6.43;5.70;;;17.50;99.90;;;;;;4975246;28;20497;-67
2021/09/13 06:12:32;;;;;;;7.50;5.23;;;17.50;99.90;;;;;;4975893;28;20471;-68
2021/09/13 06:14:59;;;;;;;5.90;5.43;;;17.70;99.90;;;;;;4975442;28;20459;-67
2021/09/13 06:17:25;;;;;;;6.17;5.70;;;17.80;99.90;;;;;;4976424;28;20461;-67
2021/09/13 06:19:53;;;;;;;7.00;6.40;;;17.80;99.90;;;;;;4975209;28;20466;-67
2021/09/13 06:22:20;;;;;;;6.67;5.13;;;17.80;99.90;;;;;;4975129;28;20981;-67
2021/09/13 06:24:47;;;;;;;6.63;5.57;;;18.00;99.90;;;;;;4975665;28;20494;-68
2021/09/13 06:27:13;;;;;;;6.43;5.77;;;18.10;99.90;;;;;;4975466;28;20468;-67
2021/09/13 06:29:41;;;;;;;6.00;5.33;;;18.10;99.90;;;;;;4975221;28;20930;-67
2021/09/13 06:32:08;;;;;;;4.77;4.37;;;18.20;99.90;;;;;;4974978;28;21043;-68
2021/09/13 06:34:35;;;;;;;5.57;5.07;;;18.80;99.90;;;;;;4976086;28;20801;-68
2021/09/13 06:37:03;;;;;;;5.40;4.90;;;19.00;99.90;;;;;;4977206;28;20455;-68
2021/09/13 06:39:30;;;;;;;4.97;4.57;;;19.10;99.90;;;;;;4975849;28;20502;-68
2021/09/13 06:41:57;;;;;;;5.70;5.17;;;19.40;99.90;;;;;;4975341;28;20489;-67
2021/09/13 06:44:25;;;;;;;5.43;4.93;;;19.40;99.90;;;;;;4974961;28;20458;-67
2021/09/13 06:47:02;;;;;;;4.80;4.37;;;19.90;99.90;;;;;;4975817;28;21009;-68
2021/09/13 06:49:29;;;;;;;4.87;4.47;;;20.60;99.90;;;;;;4975267;28;20438;-67
2021/09/13 06:51:55;;;;;;;7.23;5.00;;;21.40;99.90;;;;;;4975104;28;20486;-67
2021/09/13 06:54:23;;;;;;;4.83;4.53;;;21.70;99.90;;;;;;4982755;28;20450;-68
2021/09/13 06:56:50;;;;;;;5.23;4.93;;;22.50;99.90;;;;;;4984423;28;20457;-68
2021/09/13 06:59:17;;;;;;;4.20;3.80;;;23.30;99.90;;;;;;4975574;28;20529;-68
2021/09/13 07:01:44;;;;;;;5.50;4.30;;;23.80;99.90;;;;;;4974733;28;20907;-68
2021/09/13 07:04:11;;;;;;;5.47;5.03;;;24.50;99.90;;;;;;4975981;28;20463;-68
2021/09/13 07:06:38;;;;;;;4.37;4.07;;;24.90;99.90;;;;;;4975137;28;20451;-69
2021/09/13 07:09:04;;;;;;;4.47;4.17;;;25.30;99.90;;;;;;4976154;28;20455;-68
2021/09/13 07:11:33;;;;;;;4.53;4.23;;;25.70;99.90;;;;;;4975075;28;20561;-67
2021/09/13 07:13:59;;;;;;;4.63;4.20;;;26.00;99.90;;;;;;4975165;28;20816;-67
2021/09/13 07:16:26;;;;;;;4.20;3.80;;;25.40;99.90;;;;;;4974976;28;20451;-68
2021/09/13 07:18:53;;;;;;;4.70;4.30;;;25.70;99.90;;;;;;4975107;28;20489;-68
2021/09/13 07:21:19;;;;;;;4.27;3.90;;;26.60;99.90;;;;;;4974424;28;20478;-68
2021/09/13 07:23:46;;;;;;;4.20;3.80;;;26.50;99.90;;;;;;4978540;28;20466;-68
2021/09/13 07:26:13;;;;;;;4.13;3.83;;;26.80;99.90;;;;;;4978761;28;20462;-68
2021/09/13 07:28:41;;;;;;;4.53;4.23;;;27.50;99.90;;;;;;4978973;28;20501;-68
2021/09/13 07:31:08;;;;;;;5.10;4.63;;;27.40;99.90;;;;;;4979439;28;20815;-68
2021/09/13 07:33:34;;;;;;;6.60;4.80;;;27.10;99.90;;;;;;4978674;28;20541;-69
2021/09/13 07:36:01;;;;;;;4.63;4.33;;;27.00;99.90;;;;;;4979201;28;20504;-68
2021/09/13 07:38:28;;;;;;;6.10;5.17;;;27.40;99.90;;;;;;4978766;28;20550;-68
2021/09/13 07:40:54;;;;;;;6.13;4.50;;;27.60;99.90;;;;;;4978074;28;20486;-68
2021/09/13 07:43:21;;;;;;;6.83;4.27;;;27.60;99.90;;;;;;4978013;28;20828;-68
2021/09/13 07:45:49;;;;;;;4.87;4.47;;;27.60;99.90;;;;;;4978193;28;20447;-68
2021/09/13 07:48:17;;;;;;;5.00;4.60;;;28.10;98.70;;;;;;4978027;28;20462;-68
2021/09/13 07:50:44;;;;;;;5.17;4.77;;;28.00;98.90;;;;;;4977793;28;20505;-67
2021/09/13 07:53:11;;;;;;;4.83;4.53;;;28.20;97.70;;;;;;4977936;28;20463;-68
2021/09/13 07:55:38;;;;;;;5.37;5.00;;;28.50;98.10;;;;;;4978188;28;20463;-68
2021/09/13 07:58:04;;;;;;;4.77;4.33;;;29.10;96.60;;;;;;4978108;28;20462;-68
2021/09/13 08:00:31;;;;;;;5.10;4.53;;;29.70;95.80;;;;;;4977725;28;20838;-68
2021/09/13 08:02:59;;;;;;;4.73;4.43;;;30.10;95.20;;;;;;4978391;28;20518;-68
2021/09/13 08:05:26;;;;;;;4.40;4.10;;;29.60;95.40;;;;;;4978402;28;20455;-68
2021/09/13 08:07:52;;;;;;;6.30;4.83;;;29.90;95.00;;;;;;4977679;28;20464;-68
2021/09/13 08:10:19;;;;;;;5.07;4.53;;;30.40;92.30;;;;;;4978918;28;20482;-67
2021/09/13 08:12:46;;;;;;;4.80;4.50;;;30.90;91.80;;;;;;4978270;28;20455;-67
2021/09/13 08:15:13;;;;;;;5.00;4.63;;;30.50;92.30;;;;;;4977819;28;20458;-68
2021/09/13 08:17:39;;;;;;;4.67;4.37;;;31.20;89.90;;;;;;4977693;28;20470;-68
2021/09/13 08:20:08;;;;;;;4.50;4.30;;;31.60;87.70;;;;;;4979626;28;20479;-68
2021/09/13 08:22:35;;;;;;;4.57;4.20;;;31.70;87.70;;;;;;5000788;28;20470;-67
2021/09/13 08:25:02;;;;;;;11.40;6.93;;;31.50;89.40;;;;;;4995866;28;20470;-68
2021/09/13 08:27:29;;;;;;;8.80;5.70;;;32.10;86.30;;;;;;4983112;28;20856;-67
2021/09/13 08:29:55;;;;;;;20.33;9.70;;;32.20;84.10;;;;;;4977585;28;20435;-68
2021/09/13 08:32:22;;;;;;;5.00;4.60;;;32.70;86.60;;;;;;4977309;28;20482;-67
2021/09/13 08:34:51;;;;;;;3.87;3.67;;;33.20;82.70;;;;;;4977259;28;20466;-68
2021/09/13 08:37:20;;;;;;;4.23;3.93;;;32.90;80.20;;;;;;4977292;28;20458;-67
2021/09/13 08:39:47;;;;;;;2.80;2.70;;;33.30;79.50;;;;;;4977276;28;20503;-67
2021/09/13 08:42:14;;;;;;;3.07;2.97;;;33.30;76.40;;;;;;4977599;28;20834;-68
2021/09/13 08:44:41;;;;;;;3.00;2.80;;;33.60;74.20;;;;;;4977853;28;20461;-67
2021/09/13 08:47:14;;;;;;;3.93;3.63;;;34.20;72.60;;;;;;4977377;28;20455;-68
2021/09/13 08:49:41;;;;;;;4.30;3.40;;;33.80;72.50;;;;;;4977397;28;20441;-68
2021/09/13 08:52:08;;;;;;;4.93;2.80;;;34.10;70.10;;;;;;4977314;28;20477;-68
2021/09/13 08:54:37;;;;;;;3.43;3.13;;;34.10;68.30;;;;;;4977204;28;20528;-67
2021/09/13 08:57:06;;;;;;;3.53;3.33;;;34.20;64.30;;;;;;4976941;28;20934;-68
2021/09/13 08:59:34;;;;;;;2.90;2.80;;;34.50;65.30;;;;;;4976957;28;20519;-69
2021/09/13 09:02:01;;;;;;;4.77;3.30;;;34.60;65.10;;;;;;4976825;28;20572;-68
2021/09/13 09:04:30;;;;;;;3.00;2.80;;;35.10;63.90;;;;;;4976634;28;20937;-68
2021/09/13 09:07:07;;;;;;;3.27;3.07;;;35.30;63.40;;;;;;4977088;28;20456;-68
2021/09/13 09:09:36;;;;;;;5.20;3.40;;;35.70;59.80;;;;;;4977054;28;20818;-68
2021/09/13 09:12:06;;;;;;;3.30;3.10;;;35.90;61.40;;;;;;4976992;28;20478;-68
2021/09/13 09:14:42;;;;;;;3.20;3.00;;;34.90;60.80;;;;;;4977007;28;20846;-68
2021/09/13 09:17:13;;;;;;;3.43;3.20;;;34.60;63.80;;;;;;4977361;28;20437;-67
2021/09/13 09:19:41;;;;;;;4.27;3.97;;;34.90;60.60;;;;;;4976499;28;20974;-67
2021/09/13 09:22:19;;;;;;;3.67;3.47;;;35.30;60.20;;;;;;4976167;28;20484;-67
2021/09/13 09:24:48;;;;;;;3.73;3.43;;;35.50;59.00;;;;;;4977134;28;20534;-67
2021/09/13 09:27:15;;;;;;;3.23;3.03;;;33.80;61.10;;;;;;4977669;28;20463;-68
2021/09/13 09:29:42;;;;;;;3.37;3.17;;;34.00;61.80;;;;;;4976827;28;20458;-68
2021/09/13 09:32:10;;;;;;;5.10;3.17;;;34.50;64.70;;;;;;4976406;28;20461;-67
2021/09/13 09:34:38;;;;;;;3.57;3.30;;;34.50;62.70;;;;;;4976490;28;20467;-67
2021/09/13 09:37:08;;;;;;;2.87;2.77;;;35.10;60.80;;;;;;4976093;28;20461;-68
2021/09/13 09:39:35;;;;;;;3.80;3.60;;;34.80;64.50;;;;;;4976499;28;20481;-68
2021/09/13 09:42:06;;;;;;;3.40;3.23;;;35.60;61.90;;;;;;4976623;28;20479;-67
2021/09/13 09:44:33;;;;;;;3.13;3.03;;;35.40;59.10;;;;;;4975543;28;20446;-68
2021/09/13 09:47:06;;;;;;;3.63;3.33;;;35.90;60.40;;;;;;4975531;28;20518;-67
2021/09/13 09:49:45;;;;;;;4.37;4.03;;;35.10;57.30;;;;;;4975648;28;20573;-68
2021/09/13 09:52:12;;;;;;;3.87;3.67;;;34.90;58.70;;;;;;4975300;28;20976;-68
2021/09/13 09:54:39;;;;;;;4.27;3.50;;;35.20;58.00;;;;;;4975559;28;20481;-67
2021/09/13 09:57:09;;;;;;;3.50;3.30;;;34.90;60.00;;;;;;4995381;28;20457;-67
2021/09/13 09:59:38;;;;;;;2.70;2.60;;;35.80;59.20;;;;;;4979681;28;20483;-68
2021/09/13 10:02:14;;;;;;;3.63;3.43;;;35.60;57.60;;;;;;4976528;28;20499;-67
2021/09/13 10:04:42;;;;;;;4.00;3.80;;;36.00;60.30;;;;;;4975455;28;20464;-68
2021/09/13 10:07:14;;;;;;;3.67;3.47;;;36.90;57.20;;;;;;4975377;28;20468;-67
2021/09/13 10:09:42;;;;;;;5.13;3.30;;;36.70;58.20;;;;;;4975592;28;20457;-67
2021/09/13 10:12:11;;;;;;;3.73;3.60;;;36.80;57.00;;;;;;4975271;28;20488;-68
2021/09/13 10:14:38;;;;;;;3.80;3.60;;;36.50;58.80;;;;;;4975146;28;20462;-68
2021/09/13 10:17:06;;;;;;;3.67;3.43;;;36.50;57.40;;;;;;4975381;28;20458;-67
2021/09/13 10:19:32;;;;;;;4.80;3.80;;;35.20;58.60;;;;;;4975195;28;20492;-67
2021/09/13 10:21:59;;;;;;;4.30;3.90;;;35.50;59.10;;;;;;4975426;28;20479;-68
2021/09/13 10:24:31;;;;;;;5.53;4.20;;;35.20;59.30;;;;;;4975128;28;20465;-67
2021/09/13 10:27:06;;;;;;;4.20;3.90;;;35.10;57.60;;;;;;4975692;28;20448;-67
2021/09/13 10:29:34;;;;;;;3.90;3.70;;;35.70;58.80;;;;;;4975248;28;20454;-67
2021/09/13 10:32:07;;;;;;;4.57;4.20;;;35.90;57.70;;;;;;4975235;28;20481;-67
2021/09/13 10:34:36;;;;;;;4.90;4.50;;;36.00;58.70;;;;;;4975068;28;20918;-67
2021/09/13 10:37:05;;;;;;;4.47;4.10;;;36.30;59.30;;;;;;4975591;28;20468;-67
2021/09/13 10:39:56;;;;;;;4.70;3.93;;;36.10;58.50;;;;;;4975355;28;20487;-68
2021/09/13 10:42:35;;;;;;;4.13;3.80;;;35.70;60.60;;;;;;4975384;28;20484;-68
2021/09/13 10:45:19;;;;;;;4.40;4.20;;;35.20;59.60;;;;;;4975196;28;20455;-67
2021/09/13 10:47:49;;;;;;;4.70;4.50;;;35.30;59.00;;;;;;4972067;28;20944;-67
2021/09/13 10:50:18;;;;;;;4.83;4.43;;;34.90;60.00;;;;;;4975019;28;20454;-67
2021/09/13 10:52:46;;;;;;;4.30;4.00;;;35.30;57.60;;;;;;4974736;28;20459;-68
2021/09/13 10:55:43;;;;;;;5.27;4.93;;;35.80;60.20;;;;;;4975041;28;20459;-68
2021/09/13 10:58:12;;;;;;;5.33;4.90;;;35.00;60.90;;;;;;4977213;28;20445;-66
2021/09/13 11:00:56;;;;;;;5.60;5.20;;;35.20;60.00;;;;;;4978427;28;20487;-68
2021/09/13 11:03:40;;;;;;;6.67;6.17;;;35.20;60.20;;;;;;4979176;28;20857;-68
2021/09/13 11:06:40;;;;;;;6.30;4.93;;;34.80;60.70;;;;;;4978968;28;20443;-68
2021/09/13 11:09:09;;;;;;;5.27;4.80;;;34.10;65.20;;;;;;4979450;28;20504;-67
2021/09/13 11:11:40;;;;;;;6.10;5.60;;;33.70;62.00;;;;;;4979151;28;20482;-68
2021/09/13 11:14:09;;;;;;;5.63;5.13;;;33.70;63.30;;;;;;4979161;28;20985;-68
2021/09/13 11:16:39;;;;;;;5.00;4.70;;;32.70;64.80;;;;;;4980536;28;20462;-67
2021/09/13 11:19:10;;;;;;;5.40;5.10;;;32.00;67.30;;;;;;5000772;28;20419;-67
2021/09/13 11:21:40;;;;;;;6.33;5.53;;;31.80;67.70;;;;;;4986922;28;20992;-66
2021/09/13 11:24:09;;;;;;;5.70;5.30;;;31.50;65.70;;;;;;4980509;28;20486;-67
2021/09/13 11:26:38;;;;;;;5.60;5.10;;;31.20;69.80;;;;;;4979528;28;20498;-67
2021/09/13 11:29:06;;;;;;;4.73;4.43;;;31.20;71.50;;;;;;4989375;28;20454;-66
2021/09/13 11:31:37;;;;;;;6.30;5.77;;;31.20;72.10;;;;;;4979357;28;20478;-68
2021/09/13 11:34:07;;;;;;;6.80;6.40;;;30.60;72.80;;;;;;4978763;28;20445;-68
2021/09/13 11:36:34;;;;;;;5.00;4.60;;;30.50;76.00;;;;;;4978455;28;20858;-68
2021/09/13 11:39:04;;;;;;;5.13;4.73;;;30.70;75.50;;;;;;4977852;28;20918;-69
2021/09/13 11:41:32;;;;;;;5.80;4.50;;;30.40;72.20;;;;;;4978093;28;20495;-69
2021/09/13 11:44:07;;;;;;;5.03;4.70;;;30.30;71.40;;;;;;4977992;28;20465;-69
2021/09/13 11:46:53;;;;;;;5.03;4.63;;;30.30;76.90;;;;;;4978051;28;20458;-69
2021/09/13 11:49:21;;;;;;;4.87;4.57;;;30.30;75.10;;;;;;4978101;28;20450;-69
2021/09/13 11:52:06;;;;;;;4.50;4.20;;;30.20;73.60;;;;;;4978013;28;20478;-68
2021/09/13 11:54:42;;;;;;;5.10;4.67;;;30.50;76.40;;;;;;4978461;28;20439;-69
2021/09/13 11:57:25;;;;;;;4.93;4.53;;;30.50;72.20;;;;;;4978348;28;20473;-70
2021/09/13 11:59:53;;;;;;;5.03;4.73;;;30.40;73.50;;;;;;4979175;28;20490;-68
2021/09/13 12:02:22;;;;;;;4.27;4.03;;;30.30;76.90;;;;;;4978483;28;20486;-68
2021/09/13 12:04:50;;;;;;;6.00;4.00;;;30.40;76.80;;;;;;4978780;28;20445;-68
2021/09/13 12:07:17;;;;;;;4.80;4.50;;;30.50;74.20;;;;;;4978526;28;20458;-68
2021/09/13 12:09:46;;;;;;;5.40;5.00;;;30.70;75.60;;;;;;4977534;28;20450;-69
2021/09/13 12:12:16;;;;;;;3.93;3.73;;;30.50;76.00;;;;;;4977721;28;20478;-68
2021/09/13 12:14:43;;;;;;;5.20;4.80;;;30.30;77.90;;;;;;4977715;28;20462;-69
2021/09/13 12:17:12;;;;;;;5.20;4.90;;;30.10;78.00;;;;;;4977386;28;20462;-67
2021/09/13 12:19:43;;;;;;;5.23;4.77;;;30.20;75.40;;;;;;4979195;28;20481;-68
2021/09/13 12:22:12;;;;;;;5.10;4.80;;;30.20;74.50;;;;;;4978089;28;20485;-68
2021/09/13 12:24:40;;;;;;;5.43;5.03;;;30.20;75.80;;;;;;4977514;28;20446;-67
2021/09/13 12:27:28;;;;;;;4.73;4.33;;;30.00;72.50;;;;;;4977012;28;20942;-67
2021/09/13 12:30:03;;;;;;;4.63;4.33;;;30.00;73.60;;;;;;4970671;28;20525;-67
2021/09/13 12:32:32;;;;;;;4.97;4.60;;;30.00;75.40;;;;;;4977039;28;20474;-68
2021/09/13 12:35:02;;;;;;;4.60;4.20;;;30.00;76.00;;;;;;4976893;28;20971;-67
2021/09/13 12:37:33;;;;;;;5.83;4.83;;;30.30;73.70;;;;;;4978073;28;20447;-68
2021/09/13 12:40:02;;;;;;;4.50;4.10;;;30.40;73.50;;;;;;4977020;28;20485;-68
2021/09/13 12:42:28;;;;;;;4.40;4.20;;;30.20;74.20;;;;;;4977137;28;20489;-67
2021/09/13 12:44:59;;;;;;;4.23;4.03;;;30.10;72.00;;;;;;4977823;28;20454;-68
2021/09/13 12:47:26;;;;;;;4.93;3.93;;;29.90;72.00;;;;;;4976877;28;20450;-67
2021/09/13 12:49:53;;;;;;;4.30;4.10;;;30.10;74.00;;;;;;4976864;28;20455;-67
2021/09/13 12:52:22;;;;;;;4.73;4.37;;;30.30;74.10;;;;;;4976847;28;20481;-67
2021/09/13 12:54:49;;;;;;;4.10;3.70;;;30.30;74.80;;;;;;4977444;28;20459;-66
2021/09/13 12:57:33;;;;;;;4.80;4.00;;;30.50;76.70;;;;;;4977416;28;20493;-67
2021/09/13 13:00:12;;;;;;;4.17;3.90;;;30.60;74.00;;;;;;4977114;28;20466;-67
2021/09/13 13:02:38;;;;;;;4.10;3.90;;;30.90;70.60;;;;;;4977332;28;20470;-67
2021/09/13 13:05:07;;;;;;;4.27;4.00;;;30.70;69.70;;;;;;4977537;28;20958;-68
2021/09/13 13:07:35;;;;;;;3.87;3.67;;;30.60;71.20;;;;;;4976897;28;20458;-68
2021/09/13 13:10:02;;;;;;;4.50;3.60;;;30.40;70.60;;;;;;4981128;28;20443;-67
2021/09/13 13:12:28;;;;;;;3.57;3.37;;;30.30;69.20;;;;;;4978268;28;20497;-68
2021/09/13 13:14:58;;;;;;;4.20;4.00;;;30.10;69.20;;;;;;4977651;28;20455;-68
2021/09/13 13:17:31;;;;;;;4.33;3.93;;;30.00;69.10;;;;;;4976867;28;20482;-68
2021/09/13 13:19:57;;;;;;;4.20;4.00;;;30.00;69.10;;;;;;4976325;28;20498;-68
2021/09/13 13:22:24;;;;;;;3.97;3.77;;;30.10;70.30;;;;;;4976808;28;20486;-67
2021/09/13 13:24:52;;;;;;;4.43;4.23;;;30.20;70.20;;;;;;4976534;28;20455;-67
2021/09/13 13:27:19;;;;;;;4.40;4.10;;;30.40;73.10;;;;;;4977357;28;20461;-67
2021/09/13 13:29:45;;;;;;;4.60;3.87;;;30.50;70.90;;;;;;4976637;28;20473;-68
2021/09/13 13:32:13;;;;;;;3.47;3.37;;;30.50;72.90;;;;;;4976663;28;20470;-67
2021/09/13 13:34:40;;;;;;;4.13;3.93;;;30.50;74.00;;;;;;4976983;28;20446;-66
2021/09/13 13:37:07;;;;;;;4.30;3.90;;;30.40;68.20;;;;;;4976963;28;20458;-67
2021/09/13 13:39:33;;;;;;;5.10;3.90;;;30.50;74.10;;;;;;4976603;28;20454;-67
2021/09/13 13:42:01;;;;;;;4.33;3.60;;;30.50;70.30;;;;;;4976687;28;21013;-67
2021/09/13 13:44:28;;;;;;;3.80;3.50;;;30.40;71.90;;;;;;4976861;28;20454;-67
2021/09/13 13:46:55;;;;;;;3.87;3.63;;;30.20;71.20;;;;;;4977047;28;20466;-67
2021/09/13 13:49:21;;;;;;;6.07;3.83;;;29.80;72.50;;;;;;4979097;28;20463;-66
2021/09/13 13:51:48;;;;;;;4.57;3.47;;;29.60;75.00;;;;;;4978201;28;20471;-67
2021/09/13 13:54:15;;;;;;;4.10;3.80;;;29.20;74.80;;;;;;4977863;28;20826;-67
2021/09/13 13:56:42;;;;;;;5.13;3.53;;;29.10;76.90;;;;;;4982057;28;20455;-68
2021/09/13 13:59:10;;;;;;;3.23;3.10;;;29.10;78.30;;;;;;4986887;28;20455;-67
2021/09/13 14:01:36;;;;;;;4.10;3.83;;;29.20;75.20;;;;;;4984246;28;20849;-67
2021/09/13 14:04:03;;;;;;;3.87;3.67;;;29.40;75.10;;;;;;4978161;28;20455;-67
2021/09/13 14:06:30;;;;;;;3.80;3.47;;;29.60;75.10;;;;;;4976497;28;20454;-68
2021/09/13 14:08:57;;;;;;;3.60;3.30;;;29.70;77.70;;;;;;4976304;28;20481;-67
2021/09/13 14:11:24;;;;;;;4.13;3.93;;;29.70;73.40;;;;;;4976169;28;20552;-67
2021/09/13 14:13:50;;;;;;;3.83;3.63;;;29.70;72.90;;;;;;4976003;28;20963;-67
2021/09/13 14:16:19;;;;;;;3.73;3.43;;;29.80;75.00;;;;;;4976283;28;20457;-67
2021/09/13 14:18:45;;;;;;;3.33;3.13;;;29.80;73.40;;;;;;4976048;28;20461;-68
2021/09/13 14:21:13;;;;;;;3.53;3.20;;;29.90;74.30;;;;;;4976306;28;20482;-67
2021/09/13 14:23:40;;;;;;;3.30;3.10;;;30.10;73.50;;;;;;4994527;28;20455;-67
2021/09/13 14:26:07;;;;;;;3.07;2.93;;;30.30;72.10;;;;;;4992468;28;20451;-67
2021/09/13 14:28:33;;;;;;;3.90;3.60;;;30.20;73.00;;;;;;4978817;28;20465;-67
2021/09/13 14:31:00;;;;;;;3.90;3.70;;;30.30;75.10;;;;;;4989368;28;20970;-68
2021/09/13 14:33:28;;;;;;;3.50;3.30;;;30.30;72.70;;;;;;4984881;28;20450;-67
2021/09/13 14:35:55;;;;;;;4.20;3.53;;;30.10;69.10;;;;;;4982979;28;20461;-67
2021/09/13 14:38:21;;;;;;;5.67;3.60;;;29.90;72.40;;;;;;4982281;28;20458;-67
2021/09/13 14:40:48;;;;;;;3.77;3.67;;;29.40;72.40;;;;;;4982286;28;20486;-67
2021/09/13 14:43:15;;;;;;;3.53;3.40;;;29.20;73.60;;;;;;4984031;28;20485;-67
2021/09/13 14:45:42;;;;;;;4.40;4.10;;;29.30;74.80;;;;;;4983227;28;20823;-67
2021/09/13 14:48:08;;;;;;;4.43;3.70;;;29.30;74.80;;;;;;4982982;28;20819;-67
2021/09/13 14:50:36;;;;;;;3.67;3.47;;;29.40;74.30;;;;;;4982308;28;20454;-67
2021/09/13 14:53:03;;;;;;;3.87;3.67;;;29.40;74.50;;;;;;4998280;28;20465;-67
2021/09/13 14:55:30;;;;;;;3.80;3.60;;;29.20;74.80;;;;;;4998093;28;20450;-67
2021/09/13 14:57:56;;;;;;;3.53;3.33;;;29.20;74.00;;;;;;4985548;28;20568;-67
2021/09/13 15:00:24;;;;;;;3.80;3.60;;;29.20;75.90;;;;;;4983234;28;20458;-67
2021/09/13 15:02:50;;;;;;;3.27;3.17;;;29.10;74.90;;;;;;4984320;28;20493;-68
2021/09/13 15:05:17;;;;;;;3.80;3.60;;;29.20;77.20;;;;;;4982936;28;20458;-67
2021/09/13 15:07:46;;;;;;;4.90;3.30;;;29.20;73.30;;;;;;4983000;28;20464;-67
2021/09/13 15:10:12;;;;;;;3.93;3.63;;;29.10;74.50;;;;;;4982760;28;20458;-67
2021/09/13 15:12:39;;;;;;;3.40;3.13;;;29.20;73.40;;;;;;4982879;28;20471;-68
2021/09/13 15:15:07;;;;;;;4.20;4.00;;;28.90;73.70;;;;;;4981962;28;20465;-67
2021/09/13 15:17:35;;;;;;;3.83;3.63;;;28.80;77.90;;;;;;4981904;28;20455;-67
2021/09/13 15:20:02;;;;;;;3.57;3.30;;;28.60;75.00;;;;;;4981832;28;20489;-68
2021/09/13 15:22:28;;;;;;;3.60;3.40;;;28.50;79.00;;;;;;4981059;28;21035;-67
2021/09/13 15:24:56;;;;;;;3.83;3.43;;;28.40;76.60;;;;;;4981438;28;20466;-68
2021/09/13 15:27:23;;;;;;;3.57;3.33;;;28.40;76.20;;;;;;4981467;28;20461;-67
2021/09/13 15:29:50;;;;;;;3.33;3.13;;;28.30;76.40;;;;;;4981444;28;20450;-67
2021/09/13 15:32:16;;;;;;;3.57;3.27;;;28.30;76.50;;;;;;4981215;28;20870;-67
2021/09/13 15:34:43;;;;;;;3.60;3.40;;;28.40;77.10;;;;;;4981660;28;20465;-68
2021/09/13 15:37:10;;;;;;;4.03;3.73;;;28.40;77.90;;;;;;4982966;28;20465;-68
2021/09/13 15:39:37;;;;;;;7.00;5.27;;;28.20;77.30;;;;;;4982621;28;20456;-67
2021/09/13 15:42:05;;;;;;;5.23;4.60;;;28.20;79.80;;;;;;4981141;28;20981;-67
2021/09/13 15:44:31;;;;;;;4.07;3.73;;;28.10;79.90;;;;;;4977974;28;20462;-67
2021/09/13 15:46:58;;;;;;;4.00;3.70;;;28.10;77.10;;;;;;4978467;28;20465;-68
2021/09/13 15:49:25;;;;;;;3.50;3.30;;;28.00;80.40;;;;;;4978679;28;20483;-67
2021/09/13 15:51:52;;;;;;;4.30;3.90;;;27.70;77.90;;;;;;4978267;28;20855;-67
2021/09/13 15:54:21;;;;;;;3.67;3.37;;;27.60;80.30;;;;;;4978457;28;20454;-66
2021/09/13 15:56:47;;;;;;;4.20;3.80;;;27.40;80.50;;;;;;4978312;28;20545;-67
2021/09/13 15:59:15;;;;;;;4.30;4.03;;;27.40;80.70;;;;;;4978343;28;20944;-67
2021/09/13 16:01:42;;;;;;;4.20;4.00;;;27.40;81.80;;;;;;4978294;28;20491;-67
2021/09/13 16:04:09;;;;;;;3.50;3.30;;;27.30;81.60;;;;;;4989011;28;20443;-67
2021/09/13 16:06:35;;;;;;;3.90;3.70;;;27.30;81.60;;;;;;4986330;28;20461;-67
2021/09/13 16:09:03;;;;;;;4.17;3.87;;;27.00;82.00;;;;;;4978445;28;20965;-67
2021/09/13 16:11:30;;;;;;;4.07;3.20;;;26.90;82.90;;;;;;4978585;28;20471;-67
2021/09/13 16:13:57;;;;;;;4.17;3.90;;;26.90;84.70;;;;;;4978880;28;20461;-66
2021/09/13 16:16:25;;;;;;;4.00;3.70;;;26.80;83.60;;;;;;4978503;28;20499;-67
2021/09/13 16:18:52;;;;;;;3.53;3.33;;;26.80;83.40;;;;;;4978900;28;20438;-68
2021/09/13 16:21:19;;;;;;;3.77;3.47;;;26.70;84.40;;;;;;4978278;28;20486;-67
2021/09/13 16:23:46;;;;;;;3.70;3.50;;;26.70;83.80;;;;;;4979408;28;20455;-68
2021/09/13 16:26:14;;;;;;;3.87;3.60;;;26.60;85.30;;;;;;4978196;28;20458;-67
2021/09/13 16:28:41;;;;;;;4.30;4.10;;;26.60;84.50;;;;;;4977888;28;20449;-67
2021/09/13 16:31:08;;;;;;;4.00;3.63;;;26.60;85.90;;;;;;4977660;28;21000;-67
2021/09/13 16:33:36;;;;;;;3.77;3.57;;;26.60;85.70;;;;;;4979989;28;20459;-67
2021/09/13 16:36:03;;;;;;;3.80;3.60;;;26.50;85.00;;;;;;4985518;28;20505;-66
2021/09/13 16:38:30;;;;;;;3.90;3.70;;;26.60;85.50;;;;;;4985201;28;20455;-67
2021/09/13 16:40:57;;;;;;;4.60;4.20;;;26.40;86.20;;;;;;4985801;28;20470;-67
2021/09/13 16:43:23;;;;;;;4.70;4.40;;;26.50;86.40;;;;;;4991772;28;20459;-67
2021/09/13 16:45:50;;;;;;;3.90;3.60;;;26.30;86.30;;;;;;4993835;28;20435;-67
2021/09/13 16:48:17;;;;;;;4.07;3.80;;;26.40;86.20;;;;;;4994972;28;20445;-67
2021/09/13 16:50:45;;;;;;;3.97;3.67;;;26.30;88.20;;;;;;4995149;28;20474;-66
2021/09/13 16:53:11;;;;;;;3.70;3.40;;;26.20;87.70;;;;;;4983679;28;20926;-67